Latest Coastal Weather Observations for King Island Airport

IDT60701

Issued at 5:22 am EDT Friday 30 January 2015 (issued every 10 minutes, with the page automatically refreshed every 10 minutes)

About coastal observations | Map of coastal stations | Coastal observations for TAS | Marine services | Other Formats
Station Details ID: 098017 Name: KING ISLAND AIRPORT Lat: -39.88 Lon: 143.88 Height: 37.0 m
Data from the previous 72 hours. | See also: Recent months at King Island Airport
Date/Time
EDT
Temp

°C
Wind Pressure Rain
since 9am
mm
Weather Cloud Vis
km
Sea
Height
m
Swell
Dir
 
Speed
knots
Gust
knots
hPa Trend Height
m
Period
s
Dir
30/05:00am 11.9 S 7 9 1017.3 - 0.0 - - 10 - - - -
30/04:30am 12.1 S 6 8 1017.6 - 0.0 - Partly cloudy 10 - - - -
30/04:00am 9.7 SSE 2 5 1017.8 - 0.0 - - 10 - - - -
30/03:30am 11.5 S 1 4 1017.9 - 0.0 - - 10 - - - -
30/03:00am 11.8 S 4 6 1018.4 - 0.0 - - 10 - - - -
30/02:30am 11.9 S 5 6 1018.8 - 0.0 - - 10 - - - -
30/02:00am 12.7 S 5 6 1018.9 - 0.0 - - 10 - - - -
30/01:30am 12.6 SSE 4 6 1019.3 - 0.0 - Partly cloudy 10 - - - -
30/01:00am 9.7 ESE 4 5 1019.8 - 0.0 - Partly cloudy 10 - - - -
30/12:30am 10.1 SE 3 5 1019.9 - 0.0 - - 10 - - - -
30/12:00am 10.2 SSE 5 6 1020.0 - 0.0 - - 10 - - - -
 
Date/Time
EDT
Temp

°C
Wind Pressure Rain
since 9am
mm
Weather Cloud Vis
km
Sea
Height
m
Swell
Dir
 
Speed
knots
Gust
knots
hPa Trend Height
m
Period
s
Dir
29/11:30pm 9.6 SSE 3 5 1020.2 - 0.0 - - 10 - - - -
29/11:00pm 10.8 SE 4 4 1020.4 - 0.0 - - 10 - - - -
29/10:30pm 11.2 SE 5 6 1020.6 - 0.0 - - 10 - - - -
29/10:00pm 11.8 SE 5 6 1020.6 - 0.0 - - 10 - - - -
29/09:30pm 11.7 SSE 5 6 1020.6 - 0.0 - - 10 - - - -
29/09:00pm 12.2 SSE 6 8 1020.5 - 0.0 - - 10 - - - -
29/08:30pm 14.1 SSW 7 9 1020.4 - 0.0 - - 10 - - - -
29/08:00pm 15.4 SSW 9 11 1020.3 - 0.0 - - 10 - - - -
29/07:30pm 16.0 SSW 10 13 1020.5 - 0.0 - - 10 - - - -
29/07:00pm 16.3 SSW 11 15 1020.5 - 0.0 - - 10 - - - -
29/06:30pm 16.8 SSW 12 16 1020.5 - 0.0 - - 10 - - - -
29/06:00pm 16.7 SSW 12 16 1020.6 - 0.0 - - 10 - - - -
29/05:30pm 17.7 SSW 13 16 1021.0 - 0.0 - - 10 - - - -
29/05:00pm 17.4 SSW 12 18 1021.3 - 0.0 - Partly cloudy 10 - - - -
29/04:30pm 18.3 SSW 14 17 1021.4 - 0.0 - Partly cloudy 10 - - - -
29/04:00pm 18.9 SSW 16 20 1021.7 - 0.0 - Partly cloudy 10 - - - -
29/03:30pm 17.1 SSW 13 18 1022.0 - 0.0 - Partly cloudy 10 - - - -
29/03:00pm 17.8 S 11 19 1022.2 - 0.0 - Cloudy 10 - - - -
29/02:30pm 17.8 SSE 9 13 1022.4 - 0.0 - Partly cloudy 10 - - - -
29/02:00pm 17.7 SE 9 15 1022.5 - 0.0 - Partly cloudy 10 - - - -
29/01:30pm 18.4 SE 10 17 1022.7 - 0.0 - Partly cloudy 10 - - - -
29/01:00pm 18.4 SE 11 16 1022.9 - 0.0 - Partly cloudy 10 - - - -
29/12:30pm 20.9 ESE 13 20 1022.9 - 0.0 - Partly cloudy 10 - - - -
29/12:00pm 18.9 ESE 10 17 1023.0 - 0.0 - Partly cloudy 10 - - - -
29/11:30am 18.0 E 9 14 1023.1 - 0.0 - Partly cloudy 10 - - - -
29/11:00am 18.0 ESE 7 10 1023.2 - 0.0 - Partly cloudy 10 - - - -
29/10:30am 17.7 E 11 16 1023.1 - 0.0 - Partly cloudy 10 - - - -
29/10:00am 16.7 E 12 16 1023.2 - 0.0 - Cloudy 10 - - - -
29/09:30am 17.0 E 11 16 1023.2 - 0.0 - Cloudy 10 - - - -
29/09:00am 16.3 E 13 17 1023.2 - 0.0 - Partly cloudy 10 - - - -
29/08:30am 15.1 ESE 9 13 1022.9 - 0.0 - Partly cloudy 10 - - - -
29/08:00am 14.2 ESE 8 9 1022.8 - 0.0 - Partly cloudy 10 - - - -
29/07:30am 12.1 ESE 7 8 1022.5 - 0.0 - - 10 - - - -
29/07:00am 11.4 ESE 7 7 1022.2 - 0.0 - - 10 - - - -
29/06:30am 11.2 ESE 6 7 1021.9 - 0.0 - Partly cloudy 10 - - - -
29/06:00am 12.7 ESE 8 10 1021.8 - 0.0 - Cloudy 10 - - - -
29/05:30am 12.6 ESE 9 12 1021.6 - 0.0 - Partly cloudy 10 - - - -
29/05:00am 12.0 SSE 5 6 1021.3 - 0.0 - Cloudy 10 - - - -
29/04:30am 11.7 SE 5 6 1021.4 - 0.0 - Cloudy 10 - - - -
29/04:00am 8.8 CALM 0 0 1021.1 - 0.0 - Cloudy 10 - - - -
29/03:30am 8.5 CALM 0 0 1021.3 - 0.0 - Partly cloudy 10 - - - -
29/03:00am 8.2 CALM 0 0 1021.5 - 0.0 - - 10 - - - -
29/02:30am 9.8 CALM 0 0 1021.5 - 0.0 - - 10 - - - -
29/02:00am 10.3 CALM 0 0 1021.9 - 0.0 - - 10 - - - -
29/01:30am 10.3 CALM 0 0 1022.1 - 0.0 - - 10 - - - -
29/01:00am 9.8 CALM 0 0 1022.2 - 0.0 - - 10 - - - -
29/12:30am 9.1 NE 4 4 1022.3 - 0.0 - - 10 - - - -
29/12:00am 9.0 CALM 0 0 1022.3 - 0.0 - - 10 - - - -
 
Date/Time
EDT
Temp

°C
Wind Pressure Rain
since 9am
mm
Weather Cloud Vis
km
Sea
Height
m
Swell
Dir
 
Speed
knots
Gust
knots
hPa Trend Height
m
Period
s
Dir
28/11:30pm 11.3 S 6 7 1022.1 - 0.0 - - 10 - - - -
28/11:00pm 11.9 S 5 6 1022.5 - 0.0 - - 10 - - - -
28/10:30pm 12.3 S 5 6 1022.7 - 0.0 - - 10 - - - -
28/10:00pm 12.7 S 5 6 1022.8 - 0.0 - - 10 - - - -
28/09:30pm 12.7 SSE 5 6 1022.6 - 0.0 - - 10 - - - -
28/09:00pm 12.7 SSE 5 7 1022.5 - 0.0 - - 10 - - - -
28/08:30pm 14.2 SSE 8 11 1022.5 - 0.0 - - 10 - - - -
28/08:00pm 15.3 SSE 9 12 1022.3 - 0.0 - - 10 - - - -
28/07:30pm 16.1 SSE 10 15 1022.2 - 0.0 - - 10 - - - -
28/07:00pm 17.0 SSE 11 16 1022.0 - 0.0 - Partly cloudy 10 - - - -
28/06:30pm 18.4 SSE 9 14 1021.8 - 0.0 - Partly cloudy 10 - - - -
28/06:00pm 18.7 SSE 9 15 1021.8 - 0.0 - Partly cloudy 10 - - - -
28/05:30pm 18.4 SE 9 14 1021.8 - 0.0 - Partly cloudy 10 - - - -
28/05:00pm 18.1 SE 10 15 1021.8 - 0.0 - Partly cloudy 10 - - - -
28/04:30pm 18.4 SE 11 15 1021.9 - 0.0 - Partly cloudy 10 - - - -
28/04:00pm 19.2 SE 12 16 1021.8 - 0.0 - Partly cloudy 10 - - - -
28/03:30pm 19.1 ESE 12 19 1022.1 - 0.0 - Partly cloudy 10 - - - -
28/03:00pm 18.3 SE 11 18 1022.2 - 0.0 - Cloudy 10 - - - -
28/02:30pm 19.9 SE 12 18 1022.2 - 0.0 - Partly cloudy 10 - - - -
28/02:00pm 19.4 SE 13 17 1022.5 - 0.0 - Partly cloudy 10 - - - -
28/01:30pm 19.8 E 13 19 1022.4 - 0.0 - Partly cloudy 10 - - - -
28/01:00pm 19.4 ESE 14 19 1022.4 - 0.0 - Partly cloudy 10 - - - -
28/12:30pm 18.2 ESE 14 21 1022.5 - 0.0 - Partly cloudy 10 - - - -
28/12:00pm 19.1 ESE 14 18 1022.5 - 0.0 - Cloudy 10 - - - -
28/11:30am 19.2 E 14 20 1022.5 - 0.0 - Partly cloudy 10 - - - -
28/11:00am 17.3 ESE 13 18 1022.4 - 0.0 - Partly cloudy 10 - - - -
28/10:30am 18.0 ESE 17 22 1022.2 - 0.0 - Partly cloudy 10 - - - -
28/10:00am 16.9 ESE 14 19 1022.0 - 0.0 - Partly cloudy 10 - - - -
28/09:30am 16.8 ESE 15 19 1021.9 - 0.0 - Partly cloudy 10 - - - -
28/09:00am 16.7 ESE 15 20 1021.6 - 0.0 - Cloudy 10 - - - -
28/08:30am 16.2 ESE 13 18 1021.1 - 0.0 - Partly cloudy 10 - - - -
28/08:00am 15.5 ESE 12 16 1020.7 - 0.0 - Partly cloudy 10 - - - -
28/07:30am 14.3 ESE 13 17 1020.3 - 0.0 - - 10 - - - -
28/07:00am 13.9 ESE 13 17 1019.7 - 0.0 - - 10 - - - -
28/06:30am 13.8 ESE 14 17 1019.3 - 0.0 - - 10 - - - -
28/06:00am 12.1 E 6 8 1019.1 - 0.0 - - 10 - - - -
28/05:30am 12.3 S 5 7 1018.9 - 0.0 - - 10 - - - -
28/05:00am 12.8 SSE 8 10 1018.7 - 0.0 - - 10 - - - -
28/04:30am 12.9 SSE 10 14 1018.7 - 0.0 - - 10 - - - -
28/04:00am 13.2 SE 12 15 1018.6 - 0.0 - - 10 - - - -
28/03:30am 12.9 SSE 9 13 1018.9 - 0.0 - - 10 - - - -
28/03:00am 13.2 SSE 11 18 1019.1 - 0.0 - - 10 - - - -
28/02:30am 13.2 SSE 12 21 1019.1 - 0.0 - - 10 - - - -
28/02:00am 13.1 SSE 11 17 1019.4 - 0.0 - - 10 - - - -
28/01:30am 13.0 SSE 10 17 1019.4 - 0.0 - - 10 - - - -
28/01:00am 12.7 SSE 11 17 1019.3 - 0.0 - - 10 - - - -
28/12:30am 13.2 SSE 13 17 1019.4 - 0.0 - - 10 - - - -
28/12:00am 12.8 S 12 18 1019.4 - 0.0 - - 10 - - - -
 
Date/Time
EDT
Temp

°C
Wind Pressure Rain
since 9am
mm
Weather Cloud Vis
km
Sea
Height
m
Swell
Dir
 
Speed
knots
Gust
knots
hPa Trend Height
m
Period
s
Dir
27/11:30pm 12.8 S 11 14 1019.5 - 0.0 - - 10 - - - -
27/11:00pm 12.8 S 11 17 1019.5 - 0.0 - - 10 - - - -
27/10:30pm 13.1 S 10 16 1019.6 - 0.0 - - 10 - - - -
27/10:00pm 12.9 S 9 14 1019.7 - 0.0 - Partly cloudy 10 - - - -
27/09:30pm 13.1 S 9 15 1019.5 - 0.0 - - 10 - - - -
27/09:00pm 13.2 S 10 16 1019.5 - 0.0 - - 10 - - - -
27/08:30pm 13.7 S 10 16 1019.4 - 0.0 - - 10 - - - -
27/08:00pm 14.3 S 13 19 1019.1 - 0.0 - Partly cloudy 10 - - - -
27/07:30pm 15.5 S 14 22 1018.8 - 0.0 - Partly cloudy 10 - - - -
27/07:00pm 15.6 SSW 14 20 1018.7 - 0.0 - Partly cloudy 10 - - - -
27/06:37pm 15.6 S 15 25 1018.6 - 0.0 - Partly cloudy 10 - - - -
27/06:30pm 15.5 SSW 15 22 1018.6 - 0.0 - Partly cloudy 10 - - - -
27/06:00pm 16.1 SSW 16 22 1018.5 - 0.0 - Cloudy 10 - - - -
27/05:30pm 16.9 SSW 17 22 1018.6 - 0.0 - Partly cloudy 10 - - - -
27/05:00pm 16.0 SSW 16 21 1018.6 - 0.0 - Partly cloudy 10 - - - -
27/04:30pm 16.5 SSW 15 20 1018.7 - 0.0 - - 10 - - - -
27/04:00pm 16.7 SSW 17 24 1018.8 - 0.0 - - 10 - - - -
27/03:30pm 17.4 SSW 15 22 1018.8 - 0.0 - Partly cloudy 10 - - - -
27/03:00pm 16.9 SSW 16 21 1018.9 - 0.0 - Cloudy 10 - - - -
27/02:30pm 16.5 SSW 13 19 1018.9 - 0.0 - Partly cloudy 10 - - - -
27/02:00pm 16.0 SSW 13 18 1019.1 - 0.0 - Partly cloudy 10 - - - -
27/01:30pm 13.5 SSW 11 15 1019.4 - 0.0 - Partly cloudy 8 - - - -
27/01:00pm 14.2 SSW 15 22 1019.4 - 0.0 - Partly cloudy 10 - - - -
27/12:30pm 16.5 SW 13 18 1019.3 - 0.0 - Partly cloudy 10 - - - -
27/12:00pm 17.2 SSW 10 15 1019.3 - 0.0 - Cloudy 10 - - - -
27/11:30am 15.9 SSW 12 18 1019.4 - 0.0 - Partly cloudy 10 - - - -
27/11:00am 16.7 SSW 11 17 1019.3 - 0.0 - Partly cloudy 10 - - - -
27/10:30am 15.9 SSW 11 15 1019.1 - 0.0 - Partly cloudy 10 - - - -
27/10:00am 15.2 SSW 11 17 1019.2 - 0.0 - Cloudy 10 - - - -
27/09:30am 14.3 S 6 10 1019.2 - 0.0 - Cloudy 10 - - - -
27/09:00am 14.0 SSE 5 7 1019.1 - 0.0 - Mostly cloudy 10 - - - -
27/08:30am 13.3 SSE 4 6 1018.9 - 0.0 - Cloudy 10 - - - -
27/08:00am 12.5 SSE 5 6 1018.5 - 0.0 - Cloudy 10 - - - -
27/07:30am 10.6 SE 4 5 1018.2 - 0.0 - Partly cloudy 10 - - - -
27/07:00am 10.7 SSW 3 5 1018.0 - 0.0 - Partly cloudy 10 - - - -
27/06:30am 9.2 CALM 0 0 1017.8 - 0.0 - Partly cloudy 10 - - - -
27/06:00am 8.1 CALM 0 0 1017.7 - 0.0 - Cloudy 10 - - - -
27/05:30am 7.2 CALM 0 0 1017.5 - 0.0 - Partly cloudy 10 - - - -

Other Formats:

Comma delimited format used in spreadsheet applications
http://www.bom.gov.au/fwo/IDT60701/IDT60701.94850.axf

JavaScript Object Notation format (JSON) in row-major order
http://www.bom.gov.au/fwo/IDT60701/IDT60701.94850.json